Time;durP1;ratioP1;P1;durP2;ratioP2;P2;SDS_P1;SDS_P2;PMS_P1;PMS_P2;Temp;Humidity;BMP_temperature;BMP_pressure;BME280_temperature;BME280_humidity;BME280_pressure;Samples;Min_cycle;Max_cycle;Signal;HPM_P1;HPM_P2
2022/12/29 00:02:08;;;;;;;5.40;4.30;;;9.60;99.90;;;;;;5094102;28;20052;-77
2022/12/29 00:04:34;;;;;;;5.32;4.25;;;9.60;99.90;;;;;;5092789;28;20503;-77
2022/12/29 00:06:59;;;;;;;6.18;4.00;;;9.70;99.90;;;;;;5093646;28;20399;-77
2022/12/29 00:09:25;;;;;;;7.68;4.07;;;9.70;99.90;;;;;;5093860;28;20036;-79
2022/12/29 00:11:51;;;;;;;7.93;3.80;;;9.70;99.90;;;;;;5093937;28;20489;-78
2022/12/29 00:17:01;;;;;;;5.13;4.05;;;9.80;99.90;;;;;;5093728;28;20052;-78
2022/12/29 00:36:10;;;;;;;4.97;4.10;;;10.00;99.90;;;;;;5096194;28;20052;-77
2022/12/29 00:44:12;;;;;;;9.90;4.57;;;10.60;99.90;;;;;;5097507;28;20131;-78
2022/12/29 00:46:40;;;;;;;5.93;4.20;;;9.90;99.90;;;;;;5097549;28;20132;-78
2022/12/29 00:51:53;;;;;;;4.38;3.30;;;9.90;99.90;;;;;;5097375;28;20055;-78
2022/12/29 00:54:19;;;;;;;4.60;3.50;;;9.90;99.90;;;;;;5097484;28;20048;-78
2022/12/29 00:56:50;;;;;;;3.78;3.17;;;9.90;99.90;;;;;;5097398;28;20044;-78
2022/12/29 00:59:16;;;;;;;4.32;3.70;;;9.90;99.90;;;;;;5097273;28;20101;-76
2022/12/29 01:01:42;;;;;;;4.15;3.47;;;10.00;99.90;;;;;;5097010;28;20603;-79
2022/12/29 01:04:08;;;;;;;6.37;3.57;;;10.00;99.90;;;;;;5097123;28;20142;-78
2022/12/29 01:06:36;;;;;;;4.70;3.17;;;10.00;99.90;;;;;;5096241;28;20050;-78
2022/12/29 01:11:47;;;;;;;3.63;3.20;;;10.10;99.90;;;;;;5097571;28;20044;-78
2022/12/29 01:14:12;;;;;;;4.47;3.47;;;10.10;99.90;;;;;;5095596;28;20044;-78
2022/12/29 01:16:38;;;;;;;3.88;3.10;;;10.10;99.90;;;;;;5097278;28;20541;-78
2022/12/29 01:19:04;;;;;;;3.55;3.17;;;10.10;99.90;;;;;;5096957;28;20125;-78
2022/12/29 01:21:30;;;;;;;3.67;2.72;;;10.20;99.90;;;;;;5096918;28;20051;-79
2022/12/29 01:23:55;;;;;;;5.78;2.63;;;10.20;99.90;;;;;;5096505;28;20496;-79
2022/12/29 01:26:21;;;;;;;5.22;2.90;;;10.20;99.90;;;;;;5095692;28;20051;-75
2022/12/29 01:28:47;;;;;;;4.05;3.30;;;10.90;99.90;;;;;;5096711;28;20426;-78
2022/12/29 01:31:15;;;;;;;4.03;3.08;;;10.30;99.90;;;;;;5096719;28;20443;-79
2022/12/29 01:33:41;;;;;;;3.58;3.10;;;10.30;99.90;;;;;;5096682;28;20044;-78
2022/12/29 01:36:08;;;;;;;;;;;10.30;99.90;;;;;;5096059;28;20044;-79
2022/12/29 01:38:36;;;;;;;3.45;3.15;;;10.30;99.90;;;;;;5095484;28;19920;-76
2022/12/29 01:41:03;;;;;;;4.35;2.75;;;10.40;99.90;;;;;;5095361;28;20051;-78
2022/12/29 01:43:43;;;;;;;4.38;3.00;;;10.30;99.90;;;;;;5096314;28;20040;-78
2022/12/29 01:46:35;;;;;;;5.30;4.03;;;10.40;99.90;;;;;;5095781;28;20123;-78
2022/12/29 01:49:23;;;;;;;3.33;2.90;;;10.40;99.90;;;;;;5096455;28;20086;-76
2022/12/29 01:51:53;;;;;;;;;;;10.40;99.90;;;;;;5096837;28;20055;-77
2022/12/29 01:54:40;;;;;;;3.85;2.90;;;10.40;99.90;;;;;;5096347;28;20264;-76
2022/12/29 01:57:10;;;;;;;5.30;3.08;;;10.40;99.90;;;;;;5096173;28;20495;-76
2022/12/29 01:59:41;;;;;;;5.50;3.20;;;10.40;99.90;;;;;;5096252;28;20135;-78
2022/12/29 02:02:07;;;;;;;3.42;2.90;;;10.40;99.90;;;;;;5096548;28;20135;-79
2022/12/29 02:04:34;;;;;;;3.60;2.70;;;11.00;99.90;;;;;;5096132;28;20050;-78
2022/12/29 02:07:02;;;;;;;;;;;10.90;99.90;;;;;;5096642;28;20430;-78
2022/12/29 02:09:27;;;;;;;6.00;2.85;;;10.70;99.90;;;;;;5096108;28;19920;-77
2022/12/29 02:11:54;;;;;;;3.63;2.85;;;10.50;99.90;;;;;;5096102;28;20189;-78
2022/12/29 02:14:19;;;;;;;4.87;2.87;;;10.40;99.90;;;;;;5095718;28;20036;-77
2022/12/29 02:17:26;;;;;;;3.50;2.88;;;10.40;99.90;;;;;;5095807;28;20471;-79
2022/12/29 02:20:27;;;;;;;5.85;3.08;;;10.30;99.90;;;;;;5096206;28;20040;-75
2022/12/29 02:23:20;;;;;;;6.15;2.90;;;10.40;99.90;;;;;;5095660;28;20043;-78
2022/12/29 02:26:07;;;;;;;3.95;2.70;;;10.40;99.90;;;;;;5095390;28;20557;-77
2022/12/29 02:28:59;;;;;;;3.22;2.83;;;10.40;99.90;;;;;;5095667;28;20503;-79
2022/12/29 02:31:53;;;;;;;3.42;2.35;;;10.40;99.90;;;;;;5096146;28;20187;-78
2022/12/29 02:34:36;;;;;;;4.10;2.40;;;10.40;99.90;;;;;;5095765;28;20379;-78
2022/12/29 02:37:14;;;;;;;3.47;2.33;;;10.40;99.90;;;;;;5095444;28;20549;-78
2022/12/29 02:39:50;;;;;;;3.03;2.15;;;10.60;99.90;;;;;;5095840;28;20039;-77
2022/12/29 02:42:55;;;;;;;3.15;2.45;;;10.60;99.90;;;;;;5095344;28;20085;-78
2022/12/29 02:45:40;;;;;;;3.50;2.42;;;10.30;99.90;;;;;;5053613;28;20083;-79
2022/12/29 02:48:17;;;;;;;3.65;2.10;;;10.30;99.90;;;;;;5095629;28;20503;-79
2022/12/29 02:51:06;;;;;;;3.33;2.27;;;10.20;99.90;;;;;;5095462;28;20492;-78
2022/12/29 02:56:19;;;;;;;4.05;2.38;;;10.20;99.90;;;;;;5094751;28;20484;-78
2022/12/29 02:58:44;;;;;;;2.53;2.10;;;10.10;99.90;;;;;;5094905;28;20044;-79
2022/12/29 03:01:13;;;;;;;5.82;2.40;;;10.10;99.90;;;;;;5094806;28;20427;-78
2022/12/29 03:04:22;;;;;;;4.70;2.15;;;10.00;99.90;;;;;;5093344;28;20048;-78
2022/12/29 03:07:01;;;;;;;3.95;2.22;;;10.10;99.90;;;;;;5094513;28;20480;-79
2022/12/29 03:09:36;;;;;;;4.25;2.40;;;10.00;99.90;;;;;;5094886;28;20044;-78
2022/12/29 03:12:10;;;;;;;4.70;2.40;;;10.00;99.90;;;;;;5094799;28;20135;-79
2022/12/29 03:17:35;;;;;;;4.03;2.22;;;9.90;99.90;;;;;;5094692;28;20481;-78
2022/12/29 03:20:07;;;;;;;4.53;2.20;;;9.90;99.90;;;;;;5094609;28;20043;-79
2022/12/29 03:22:38;;;;;;;3.75;2.70;;;9.90;99.90;;;;;;5094557;28;20036;-78
2022/12/29 03:25:07;;;;;;;4.05;2.53;;;10.20;99.90;;;;;;5094593;28;20050;-79
2022/12/29 03:27:39;;;;;;;3.92;2.50;;;9.90;99.90;;;;;;5094466;28;20487;-79
2022/12/29 03:30:06;;;;;;;3.47;2.50;;;9.80;99.90;;;;;;5094670;28;20388;-78
2022/12/29 03:32:39;;;;;;;2.75;2.35;;;9.80;99.90;;;;;;5094773;28;20400;-78
2022/12/29 03:35:08;;;;;;;2.72;2.15;;;9.80;99.90;;;;;;5094443;28;20044;-78
2022/12/29 03:37:45;;;;;;;7.13;2.38;;;9.80;99.90;;;;;;5094346;28;20044;-78
2022/12/29 03:40:11;;;;;;;3.40;2.20;;;9.80;99.90;;;;;;5094360;28;20047;-76
2022/12/29 03:42:38;;;;;;;3.08;2.30;;;9.80;99.90;;;;;;5094074;28;20649;-77
2022/12/29 03:45:06;;;;;;;3.25;2.38;;;10.00;99.90;;;;;;5094299;28;20044;-78
2022/12/29 03:47:31;;;;;;;3.97;2.70;;;9.80;99.90;;;;;;5094192;28;20368;-77
2022/12/29 03:49:57;;;;;;;3.55;2.20;;;9.80;99.90;;;;;;5094322;28;20127;-78
2022/12/29 03:52:23;;;;;;;4.68;2.55;;;9.80;99.90;;;;;;5094017;28;20040;-78
2022/12/29 03:54:48;;;;;;;2.78;2.40;;;9.80;99.90;;;;;;5094105;28;20047;-78
2022/12/29 03:57:14;;;;;;;5.18;2.60;;;9.80;99.90;;;;;;5094422;28;20044;-77
2022/12/29 03:59:39;;;;;;;2.92;2.20;;;9.80;99.90;;;;;;5094040;28;20036;-79
2022/12/29 04:02:05;;;;;;;3.22;2.20;;;9.80;99.90;;;;;;5092525;28;20487;-78
2022/12/29 04:04:30;;;;;;;5.60;2.17;;;10.50;99.90;;;;;;5092782;28;20075;-77
2022/12/29 04:06:56;;;;;;;3.03;1.90;;;9.80;99.90;;;;;;5093872;28;20055;-77
2022/12/29 04:09:22;;;;;;;3.58;1.95;;;9.90;99.90;;;;;;5093439;28;20044;-78
2022/12/29 04:11:47;;;;;;;3.45;2.03;;;9.80;99.90;;;;;;5094288;28;20044;-77
2022/12/29 04:14:13;;;;;;;4.38;1.50;;;9.80;99.90;;;;;;5094158;28;20044;-78
2022/12/29 04:16:38;;;;;;;3.97;1.83;;;10.00;99.90;;;;;;5093868;28;20051;-77
2022/12/29 04:19:05;;;;;;;4.07;2.00;;;9.80;99.90;;;;;;5093715;28;20567;-78
2022/12/29 04:21:31;;;;;;;4.53;1.90;;;9.80;99.90;;;;;;5093764;28;20054;-78
2022/12/29 04:23:56;;;;;;;4.68;1.77;;;9.80;99.90;;;;;;5093385;28;20127;-78
2022/12/29 04:26:22;;;;;;;4.00;1.60;;;10.10;99.90;;;;;;5094136;28;20043;-78
2022/12/29 04:28:48;;;;;;;2.78;1.65;;;9.80;99.90;;;;;;5093397;28;20127;-78
2022/12/29 04:31:13;;;;;;;5.47;2.00;;;9.80;99.90;;;;;;5093898;28;20076;-77
2022/12/29 04:33:39;;;;;;;2.33;1.58;;;9.80;99.90;;;;;;5092422;28;20040;-78
2022/12/29 04:36:05;;;;;;;3.45;1.73;;;9.90;99.90;;;;;;5093664;28;20044;-77
2022/12/29 04:38:31;;;;;;;3.88;1.70;;;9.90;99.90;;;;;;5093181;28;20043;-78
2022/12/29 04:40:59;;;;;;;1.88;1.60;;;10.60;99.90;;;;;;5093642;28;20040;-78
2022/12/29 04:43:25;;;;;;;4.10;1.80;;;9.90;99.90;;;;;;5093451;28;20044;-78
2022/12/29 04:45:51;;;;;;;3.72;1.80;;;10.00;99.90;;;;;;5093188;28;20098;-78
2022/12/29 04:48:16;;;;;;;2.95;1.70;;;10.00;99.90;;;;;;5093726;28;20047;-78
2022/12/29 04:50:43;;;;;;;2.47;1.67;;;9.90;99.90;;;;;;5092328;28;20055;-78
2022/12/29 04:53:08;;;;;;;1.92;1.70;;;10.00;99.90;;;;;;5093387;28;20046;-77
2022/12/29 04:55:34;;;;;;;5.82;1.90;;;9.90;99.90;;;;;;5093456;28;20043;-77
2022/12/29 04:58:00;;;;;;;3.30;1.70;;;10.50;99.90;;;;;;5093402;28;20446;-78
2022/12/29 05:00:25;;;;;;;2.03;1.40;;;9.90;99.90;;;;;;5093157;28;20520;-79
2022/12/29 05:02:51;;;;;;;3.50;1.58;;;10.50;99.90;;;;;;5093350;28;20389;-78
2022/12/29 05:05:17;;;;;;;2.25;1.60;;;9.80;99.90;;;;;;5093298;28;20036;-78
2022/12/29 05:07:43;;;;;;;2.20;1.85;;;9.80;99.90;;;;;;5093376;28;20123;-78
2022/12/29 05:10:09;;;;;;;3.55;1.60;;;9.80;99.90;;;;;;5093251;28;20089;-77
2022/12/29 05:12:36;;;;;;;3.53;1.77;;;9.80;99.90;;;;;;5092205;28;20040;-77
2022/12/29 05:15:03;;;;;;;3.17;2.00;;;9.80;99.90;;;;;;5093262;28;20048;-77
2022/12/29 05:17:29;;;;;;;5.70;1.98;;;9.80;99.90;;;;;;5093404;28;20040;-76
2022/12/29 05:19:55;;;;;;;7.70;1.80;;;9.80;99.90;;;;;;5093153;28;20040;-77
2022/12/29 05:22:21;;;;;;;3.67;1.70;;;10.00;99.90;;;;;;5094584;28;20085;-77
2022/12/29 05:24:46;;;;;;;2.47;1.60;;;9.80;99.90;;;;;;5096461;28;20100;-76
2022/12/29 05:27:12;;;;;;;2.53;1.90;;;9.80;99.90;;;;;;5097085;28;20047;-77
2022/12/29 05:29:37;;;;;;;5.50;1.88;;;9.90;99.90;;;;;;5096360;28;20051;-77
2022/12/29 05:32:03;;;;;;;4.07;1.60;;;9.90;99.90;;;;;;5096842;28;20047;-77
2022/12/29 05:34:29;;;;;;;4.43;1.85;;;9.90;99.90;;;;;;5096599;28;20078;-76
2022/12/29 05:36:55;;;;;;;4.70;1.80;;;9.90;99.90;;;;;;5096376;28;20111;-77
2022/12/29 05:39:20;;;;;;;5.15;2.15;;;9.80;99.90;;;;;;5097060;28;20040;-76
2022/12/29 05:41:46;;;;;;;2.47;1.75;;;9.90;99.90;;;;;;5096263;28;20397;-77
2022/12/29 05:44:11;;;;;;;3.05;1.60;;;9.80;99.90;;;;;;5096452;28;20040;-76
2022/12/29 05:46:37;;;;;;;3.17;1.90;;;9.80;99.90;;;;;;5095825;28;20078;-76
2022/12/29 05:49:04;;;;;;;5.10;1.80;;;9.80;99.90;;;;;;5094391;28;20467;-77
2022/12/29 05:51:30;;;;;;;4.70;1.95;;;9.70;99.90;;;;;;5096397;28;20131;-77
2022/12/29 05:53:55;;;;;;;4.70;1.85;;;9.70;99.90;;;;;;5095187;28;20119;-79
2022/12/29 05:56:21;;;;;;;6.03;2.15;;;9.80;99.90;;;;;;5095960;28;20528;-77
2022/12/29 05:58:47;;;;;;;4.45;1.90;;;9.70;99.90;;;;;;5096254;28;20085;-78
2022/12/29 06:01:12;;;;;;;4.55;1.92;;;9.70;99.90;;;;;;5096597;28;20063;-78
2022/12/29 06:03:38;;;;;;;4.28;1.98;;;10.10;99.90;;;;;;5096030;28;20047;-77
2022/12/29 06:06:04;;;;;;;3.92;1.80;;;9.70;99.90;;;;;;5096103;28;20040;-77
2022/12/29 06:08:29;;;;;;;4.22;1.65;;;9.70;99.90;;;;;;5096500;28;20048;-77
2022/12/29 06:10:55;;;;;;;2.20;1.50;;;9.60;99.90;;;;;;5095791;28;20040;-78
2022/12/29 06:13:21;;;;;;;5.40;1.70;;;9.60;99.90;;;;;;5095991;28;20069;-76
2022/12/29 06:15:48;;;;;;;3.58;1.73;;;9.60;99.90;;;;;;5095984;28;20044;-78
2022/12/29 06:18:14;;;;;;;7.43;1.80;;;9.60;99.90;;;;;;5095818;28;20127;-78
2022/12/29 06:20:40;;;;;;;10.23;4.07;;;9.60;99.90;;;;;;5095742;28;20488;-76
2022/12/29 06:23:06;;;;;;;4.82;1.50;;;9.60;99.90;;;;;;5095319;28;20040;-77
2022/12/29 06:25:33;;;;;;;4.22;1.60;;;9.60;99.90;;;;;;5095749;28;20052;-77
2022/12/29 06:27:59;;;;;;;;;;;9.60;99.90;;;;;;5096324;28;20048;-77
2022/12/29 06:30:24;;;;;;;7.95;1.65;;;9.60;99.90;;;;;;5095529;28;20379;-77
2022/12/29 06:32:51;;;;;;;5.38;1.63;;;9.60;99.90;;;;;;5095283;28;20044;-77
2022/12/29 06:35:17;;;;;;;4.18;1.92;;;9.60;99.90;;;;;;5095396;28;20040;-78
2022/12/29 06:37:43;;;;;;;4.32;1.77;;;9.60;99.90;;;;;;5095399;28;20089;-78
2022/12/29 06:40:09;;;;;;;3.25;1.80;;;9.60;99.90;;;;;;5095402;28;20075;-77
2022/12/29 06:42:35;;;;;;;4.80;1.83;;;9.60;99.90;;;;;;5095206;28;20044;-78
2022/12/29 06:45:01;;;;;;;6.57;2.10;;;9.60;99.90;;;;;;5095802;28;20066;-79
2022/12/29 06:47:27;;;;;;;5.13;1.75;;;9.60;99.90;;;;;;5095352;28;20043;-78
2022/12/29 06:49:52;;;;;;;7.40;1.90;;;9.80;99.90;;;;;;5095204;28;20047;-77
2022/12/29 06:52:18;;;;;;;6.35;2.05;;;9.60;99.90;;;;;;5095118;28;20483;-77
2022/12/29 06:54:44;;;;;;;5.40;1.92;;;9.60;99.90;;;;;;5095133;28;20044;-77
2022/12/29 06:57:09;;;;;;;5.15;1.70;;;9.60;99.90;;;;;;5095308;28;20384;-78
2022/12/29 06:59:35;;;;;;;6.45;1.88;;;9.70;99.90;;;;;;5094775;28;20040;-77
2022/12/29 07:02:01;;;;;;;5.18;2.00;;;9.60;99.90;;;;;;5094837;28;20058;-77
2022/12/29 07:04:27;;;;;;;5.63;1.90;;;9.70;99.90;;;;;;5093355;28;20040;-77
2022/12/29 07:06:54;;;;;;;6.37;2.20;;;9.60;99.90;;;;;;5094403;28;20051;-77
2022/12/29 07:09:19;;;;;;;8.40;2.20;;;9.60;99.90;;;;;;5094749;28;20123;-77
2022/12/29 07:11:45;;;;;;;8.23;2.53;;;9.50;99.90;;;;;;5110343;28;20086;-77
2022/12/29 07:14:11;;;;;;;7.18;2.35;;;9.50;99.90;;;;;;5094704;28;20448;-77
2022/12/29 07:16:37;;;;;;;9.10;2.15;;;9.50;99.90;;;;;;5094594;28;20044;-78
2022/12/29 07:19:02;;;;;;;10.18;2.08;;;9.80;99.90;;;;;;5094341;28;20388;-77
2022/12/29 07:21:28;;;;;;;9.50;2.45;;;9.50;99.90;;;;;;5094651;28;20128;-77
2022/12/29 07:23:54;;;;;;;8.88;2.42;;;10.10;99.90;;;;;;5094333;28;20044;-78
2022/12/29 07:26:20;;;;;;;4.90;2.03;;;9.50;99.90;;;;;;5094378;28;20044;-78
2022/12/29 07:28:46;;;;;;;7.55;2.33;;;9.50;99.90;;;;;;5094448;28;20044;-77
2022/12/29 07:31:17;;;;;;;10.10;2.40;;;9.50;99.90;;;;;;5094337;28;20121;-76
2022/12/29 07:33:43;;;;;;;10.85;2.65;;;9.50;99.90;;;;;;5094102;28;20097;-76
2022/12/29 07:36:10;;;;;;;8.70;2.67;;;9.40;99.90;;;;;;5093839;28;20044;-76
2022/12/29 07:38:35;;;;;;;8.93;2.20;;;9.40;99.90;;;;;;5094173;28;20071;-76
2022/12/29 07:41:01;;;;;;;6.65;2.13;;;9.40;99.90;;;;;;5094164;28;20459;-76
2022/12/29 07:43:27;;;;;;;5.72;1.98;;;9.40;99.90;;;;;;5093991;28;20040;-76
2022/12/29 07:45:53;;;;;;;6.53;2.20;;;9.40;99.90;;;;;;5093296;28;20044;-76
2022/12/29 07:48:19;;;;;;;6.75;2.15;;;9.50;99.90;;;;;;5093936;28;20495;-76
2022/12/29 07:50:44;;;;;;;5.95;2.17;;;9.50;99.90;;;;;;5093870;28;20044;-76
2022/12/29 07:53:10;;;;;;;9.73;2.10;;;9.40;99.90;;;;;;5093606;28;20039;-76
2022/12/29 07:55:36;;;;;;;4.95;1.95;;;9.40;99.90;;;;;;5093859;28;20039;-76
2022/12/29 07:58:01;;;;;;;9.05;2.45;;;9.50;99.90;;;;;;5093863;28;20044;-74
2022/12/29 08:00:27;;;;;;;5.80;1.88;;;9.40;99.90;;;;;;5093669;28;20089;-71
2022/12/29 08:02:53;;;;;;;7.55;2.30;;;9.40;99.90;;;;;;5093880;28;20067;-76
2022/12/29 08:05:20;;;;;;;;;;;9.40;99.90;;;;;;5093844;28;20074;-75
2022/12/29 08:07:46;;;;;;;5.80;1.95;;;9.40;99.90;;;;;;5093448;28;19920;-75
2022/12/29 08:10:13;;;;;;;5.13;1.98;;;9.40;99.90;;;;;;5093780;28;20135;-75
2022/12/29 08:12:40;;;;;;;8.45;2.08;;;9.40;99.90;;;;;;5092479;28;20400;-78
2022/12/29 08:15:06;;;;;;;4.25;1.90;;;9.40;99.90;;;;;;5093503;28;20054;-77
2022/12/29 08:17:32;;;;;;;3.65;1.80;;;9.40;99.90;;;;;;5093593;28;20052;-77
2022/12/29 08:19:58;;;;;;;5.75;1.90;;;9.40;99.90;;;;;;5093253;28;20044;-76
2022/12/29 08:22:24;;;;;;;11.68;3.20;;;9.80;99.90;;;;;;5093759;28;20495;-76
2022/12/29 08:24:50;;;;;;;7.70;2.00;;;9.40;99.90;;;;;;5093652;28;20116;-81
2022/12/29 08:27:15;;;;;;;12.10;2.75;;;9.30;99.90;;;;;;5092388;28;20467;-79
2022/12/29 08:29:41;;;;;;;7.93;2.47;;;9.50;99.90;;;;;;5093622;28;20059;-78
2022/12/29 08:32:07;;;;;;;8.50;2.38;;;9.30;99.90;;;;;;5093612;28;20396;-75
2022/12/29 08:34:33;;;;;;;8.45;2.45;;;9.40;99.90;;;;;;5093102;28;20101;-77
2022/12/29 08:36:59;;;;;;;7.70;2.50;;;9.30;99.90;;;;;;5092929;28;20052;-77
2022/12/29 08:39:24;;;;;;;6.05;2.10;;;9.30;99.90;;;;;;5091835;28;20395;-76
2022/12/29 08:41:50;;;;;;;6.22;2.35;;;9.30;99.90;;;;;;5092181;28;20400;-78
2022/12/29 08:44:16;;;;;;;7.70;2.28;;;9.40;99.90;;;;;;5074845;28;20032;-78
2022/12/29 08:46:41;;;;;;;11.02;2.28;;;9.30;99.90;;;;;;5093429;28;20092;-77
2022/12/29 08:49:07;;;;;;;7.78;2.05;;;9.40;99.90;;;;;;5092945;28;20047;-76
2022/12/29 08:51:33;;;;;;;6.45;2.08;;;9.30;99.90;;;;;;5092086;28;20530;-78
2022/12/29 08:53:59;;;;;;;8.18;2.33;;;9.30;99.90;;;;;;5092227;28;20048;-77
2022/12/29 08:56:24;;;;;;;5.65;1.83;;;9.30;99.90;;;;;;5093905;28;20058;-78
2022/12/29 08:58:51;;;;;;;4.78;2.08;;;9.30;99.90;;;;;;5095694;28;20043;-77
2022/12/29 09:01:17;;;;;;;7.53;1.90;;;9.40;99.90;;;;;;5095752;28;20052;-81
2022/12/29 09:03:42;;;;;;;7.60;1.95;;;9.40;99.90;;;;;;5097070;28;20040;-78
2022/12/29 09:06:08;;;;;;;9.85;2.28;;;9.50;99.90;;;;;;5095898;28;20101;-79
2022/12/29 09:08:33;;;;;;;5.97;2.20;;;9.70;99.90;;;;;;5096745;28;20040;-77
2022/12/29 09:11:12;;;;;;;5.82;2.15;;;9.50;99.90;;;;;;5095960;28;20503;-77
2022/12/29 09:13:37;;;;;;;12.73;2.38;;;9.40;99.90;;;;;;5095864;28;20058;-77
2022/12/29 09:16:03;;;;;;;5.20;1.88;;;9.40;99.90;;;;;;5095600;28;20044;-77
2022/12/29 09:18:29;;;;;;;8.03;1.70;;;9.40;99.90;;;;;;5096248;28;20076;-76
2022/12/29 09:20:57;;;;;;;6.68;2.15;;;9.40;99.90;;;;;;5095527;28;20056;-75
2022/12/29 09:23:23;;;;;;;5.70;1.92;;;9.50;99.90;;;;;;5096695;28;20051;-76
2022/12/29 09:25:49;;;;;;;11.02;2.33;;;9.50;99.90;;;;;;5096287;28;20399;-77
2022/12/29 09:28:14;;;;;;;4.88;1.98;;;9.50;99.90;;;;;;5095747;28;20109;-76
2022/12/29 09:30:41;;;;;;;10.95;2.13;;;9.50;99.90;;;;;;5095772;28;20052;-77
2022/12/29 09:33:06;;;;;;;5.30;1.70;;;9.50;99.90;;;;;;5094992;28;20475;-75
2022/12/29 09:35:32;;;;;;;7.80;2.30;;;9.70;99.90;;;;;;5095336;28;20097;-75
2022/12/29 09:37:58;;;;;;;8.23;2.28;;;9.40;99.90;;;;;;5096259;28;20044;-77
2022/12/29 09:40:31;;;;;;;7.30;2.20;;;9.70;99.90;;;;;;5096373;28;20399;-77
2022/12/29 09:43:24;;;;;;;7.40;2.30;;;9.30;99.90;;;;;;5095894;28;20040;-76
2022/12/29 09:46:15;;;;;;;5.60;2.20;;;9.20;99.90;;;;;;5096223;28;20073;-76
2022/12/29 09:48:47;;;;;;;6.32;2.30;;;9.40;99.90;;;;;;5077792;28;20055;-77
2022/12/29 09:51:16;;;;;;;2.97;1.80;;;9.70;99.90;;;;;;5095982;28;20059;-76
2022/12/29 09:53:52;;;;;;;5.43;2.40;;;9.10;99.90;;;;;;5096326;28;20461;-76
2022/12/29 09:56:21;;;;;;;6.35;2.28;;;9.30;99.90;;;;;;5095692;28;20488;-77
2022/12/29 09:59:06;;;;;;;4.50;2.20;;;9.80;99.90;;;;;;5095746;28;20086;-75
2022/12/29 10:01:41;;;;;;;7.55;2.10;;;9.20;99.90;;;;;;5094726;28;20052;-76
2022/12/29 10:04:07;;;;;;;7.15;1.90;;;9.20;99.90;;;;;;5095897;28;20098;-76
2022/12/29 10:06:54;;;;;;;15.30;3.08;;;9.30;99.90;;;;;;5095555;28;20396;-76
2022/12/29 10:09:44;;;;;;;10.98;2.47;;;9.20;99.90;;;;;;5095484;28;20032;-76
2022/12/29 10:12:22;;;;;;;14.63;2.50;;;9.30;99.90;;;;;;5095531;28;20135;-76
2022/12/29 10:15:08;;;;;;;6.93;2.25;;;9.30;99.90;;;;;;5095700;28;20048;-76
2022/12/29 10:17:48;;;;;;;5.75;2.10;;;9.40;99.90;;;;;;5095969;28;20091;-77
2022/12/29 10:20:57;;;;;;;4.60;1.80;;;9.70;99.90;;;;;;5095614;28;20055;-76
2022/12/29 10:23:28;;;;;;;10.57;2.35;;;9.50;99.90;;;;;;5095387;28;20055;-76
2022/12/29 10:25:56;;;;;;;7.20;2.03;;;9.50;99.90;;;;;;5095430;28;20052;-76
2022/12/29 10:28:59;;;;;;;7.10;2.25;;;9.60;99.90;;;;;;5095485;28;20064;-77
2022/12/29 10:31:48;;;;;;;9.40;2.20;;;9.90;99.90;;;;;;5070097;28;20496;-76
2022/12/29 10:34:41;;;;;;;9.55;2.95;;;9.60;99.90;;;;;;5094799;28;20090;-76
2022/12/29 10:37:22;;;;;;;10.38;2.38;;;9.60;99.90;;;;;;5094186;28;20036;-76
2022/12/29 10:39:54;;;;;;;5.55;1.90;;;10.20;99.90;;;;;;5095263;28;20044;-77
2022/12/29 10:42:44;;;;;;;9.68;2.33;;;9.60;99.90;;;;;;5094521;28;20095;-76
2022/12/29 10:45:16;;;;;;;7.82;2.22;;;9.70;99.90;;;;;;5095113;28;20084;-77
2022/12/29 10:47:55;;;;;;;10.80;2.33;;;9.70;99.90;;;;;;5094942;28;20052;-76
2022/12/29 10:50:22;;;;;;;12.07;2.65;;;9.70;99.90;;;;;;5094938;28;20040;-78
2022/12/29 10:52:48;;;;;;;3.67;1.92;;;9.70;99.90;;;;;;5094964;28;20054;-78
2022/12/29 10:55:21;;;;;;;10.00;2.10;;;9.60;99.90;;;;;;5094879;28;20478;-78
2022/12/29 10:57:48;;;;;;;11.93;2.30;;;9.50;99.90;;;;;;5095028;28;20093;-76
2022/12/29 11:00:20;;;;;;;;;;;9.50;99.90;;;;;;5095331;28;20052;-77
2022/12/29 11:03:02;;;;;;;9.45;2.33;;;9.50;99.90;;;;;;5094517;28;19973;-79
2022/12/29 11:05:39;;;;;;;7.90;2.85;;;9.50;99.90;;;;;;5094877;28;20087;-77
2022/12/29 11:08:18;;;;;;;5.75;2.30;;;9.50;99.90;;;;;;5094866;28;20044;-75
2022/12/29 11:10:45;;;;;;;6.13;2.78;;;9.40;99.90;;;;;;5094389;28;20051;-79
2022/12/29 11:13:18;;;;;;;5.30;2.10;;;9.40;99.90;;;;;;5094579;28;20051;-78
2022/12/29 11:15:46;;;;;;;9.13;2.50;;;9.40;99.90;;;;;;5094541;28;20040;-73
2022/12/29 11:18:24;;;;;;;8.30;2.08;;;9.40;99.90;;;;;;5094562;28;20048;-79
2022/12/29 11:21:03;;;;;;;6.45;2.80;;;9.60;99.90;;;;;;5093487;28;20132;-76
2022/12/29 11:23:33;;;;;;;7.07;2.45;;;9.30;99.90;;;;;;5094287;28;20040;-77
2022/12/29 11:26:06;;;;;;;6.10;2.45;;;9.30;99.90;;;;;;5101669;28;20040;-77
2022/12/29 11:28:33;;;;;;;8.40;2.35;;;9.30;99.90;;;;;;5094143;28;20393;-76
2022/12/29 11:31:02;;;;;;;9.05;2.55;;;9.20;99.90;;;;;;5094470;28;20101;-76
2022/12/29 11:33:30;;;;;;;6.63;2.42;;;9.20;99.90;;;;;;5093172;28;20127;-77
2022/12/29 11:36:02;;;;;;;8.80;2.85;;;9.60;99.90;;;;;;5094078;28;20048;-76
2022/12/29 11:38:36;;;;;;;7.82;2.20;;;9.20;99.90;;;;;;5094057;28;20040;-76
2022/12/29 11:41:03;;;;;;;8.68;2.20;;;9.40;99.90;;;;;;5094214;28;20449;-75
2022/12/29 11:43:36;;;;;;;8.13;2.28;;;9.20;99.90;;;;;;5094055;28;20119;-82
2022/12/29 11:46:03;;;;;;;9.27;2.20;;;9.20;99.90;;;;;;5094201;28;20048;-76
2022/12/29 11:48:37;;;;;;;7.88;2.30;;;9.20;99.90;;;;;;5093606;28;20052;-78
2022/12/29 11:51:03;;;;;;;5.68;2.45;;;9.20;99.90;;;;;;5093670;28;20123;-78
2022/12/29 11:53:39;;;;;;;4.78;2.20;;;9.20;99.90;;;;;;5093731;28;20082;-78
2022/12/29 11:56:10;;;;;;;8.55;2.75;;;9.40;99.90;;;;;;5094131;28;20503;-77
2022/12/29 11:58:38;;;;;;;6.72;2.25;;;9.20;99.90;;;;;;5094084;28;20395;-78
2022/12/29 12:01:34;;;;;;;5.50;2.47;;;9.20;99.90;;;;;;5093766;28;20074;-78
2022/12/29 12:04:16;;;;;;;9.40;2.70;;;9.20;99.90;;;;;;5093328;28;20074;-79
2022/12/29 12:07:00;;;;;;;9.77;3.13;;;9.10;99.90;;;;;;5093846;28;20048;-80
2022/12/29 12:09:32;;;;;;;8.90;2.88;;;9.30;99.90;;;;;;5093853;28;20048;-79
2022/12/29 12:11:59;;;;;;;7.07;2.35;;;9.40;99.90;;;;;;5094039;28;20044;-77
2022/12/29 12:14:52;;;;;;;11.45;2.80;;;9.50;99.90;;;;;;5093628;28;20044;-79
2022/12/29 12:17:37;;;;;;;8.57;2.38;;;9.50;99.90;;;;;;5093578;28;20166;-80
2022/12/29 12:20:16;;;;;;;7.40;2.40;;;9.60;99.90;;;;;;5075806;28;20066;-79
2022/12/29 12:22:51;;;;;;;5.43;2.42;;;9.70;99.90;;;;;;5093189;28;20113;-79
2022/12/29 12:25:30;;;;;;;6.18;2.40;;;9.70;99.90;;;;;;5093365;28;20488;-79
2022/12/29 12:27:59;;;;;;;6.85;2.75;;;9.80;99.90;;;;;;5093558;28;20105;-78
2022/12/29 12:30:30;;;;;;;8.30;2.53;;;10.00;99.90;;;;;;5093911;28;20040;-78
2022/12/29 12:33:00;;;;;;;6.05;2.35;;;10.10;99.90;;;;;;5097613;28;20040;-77
2022/12/29 12:35:54;;;;;;;9.15;2.80;;;10.10;99.90;;;;;;5097617;28;20079;-77
2022/12/29 12:38:43;;;;;;;8.75;2.53;;;10.10;99.90;;;;;;5097145;28;20488;-77
2022/12/29 12:41:44;;;;;;;9.18;2.50;;;10.00;99.90;;;;;;5097441;28;20052;-78
2022/12/29 12:44:27;;;;;;;13.23;2.65;;;9.90;99.90;;;;;;5097424;28;20046;-78
2022/12/29 12:47:11;;;;;;;5.63;2.35;;;9.80;99.90;;;;;;5097318;28;20501;-77
2022/12/29 12:49:42;;;;;;;7.18;2.67;;;9.70;99.90;;;;;;5097072;28;20044;-77
2022/12/29 12:52:21;;;;;;;14.63;2.53;;;9.80;99.90;;;;;;5097136;28;20139;-78
2022/12/29 12:55:22;;;;;;;8.15;2.65;;;9.80;99.90;;;;;;5097244;28;20480;-77
2022/12/29 12:58:00;;;;;;;9.95;2.40;;;9.80;99.90;;;;;;5065602;28;20055;-78
2022/12/29 13:00:27;;;;;;;10.05;2.60;;;9.80;99.90;;;;;;5096700;28;20551;-78
2022/12/29 13:03:28;;;;;;;7.72;2.20;;;9.80;99.90;;;;;;5097295;28;20403;-77
2022/12/29 13:06:25;;;;;;;12.18;3.00;;;9.80;99.90;;;;;;5096964;28;20131;-78
2022/12/29 13:09:05;;;;;;;11.32;2.53;;;9.80;99.90;;;;;;5097165;28;20040;-78
2022/12/29 13:12:01;;;;;;;11.00;2.97;;;9.70;99.90;;;;;;5097085;28;20048;-79
2022/12/29 13:14:26;;;;;;;12.50;2.95;;;9.70;99.90;;;;;;5096897;28;20385;-78
2022/12/29 13:17:13;;;;;;;6.88;2.42;;;9.80;99.90;;;;;;5096506;28;20040;-78
2022/12/29 13:19:47;;;;;;;10.25;2.70;;;9.70;99.90;;;;;;5096838;28;20079;-78
2022/12/29 13:22:12;;;;;;;15.00;2.97;;;9.70;99.90;;;;;;5095729;28;20101;-77
2022/12/29 13:25:10;;;;;;;11.15;2.60;;;9.70;99.90;;;;;;5096721;28;20387;-77
2022/12/29 13:27:42;;;;;;;9.23;2.95;;;9.60;99.90;;;;;;5096680;28;20136;-77
2022/12/29 13:30:17;;;;;;;16.08;3.20;;;9.60;99.90;;;;;;5096671;28;20052;-77
2022/12/29 13:32:51;;;;;;;12.57;3.00;;;9.60;99.90;;;;;;5095489;28;20380;-77
2022/12/29 13:35:45;;;;;;;15.43;3.53;;;9.50;99.90;;;;;;5096368;28;20129;-78
2022/12/29 13:38:19;;;;;;;11.10;3.17;;;9.50;99.90;;;;;;5096738;28;20055;-77
2022/12/29 13:40:48;;;;;;;9.80;2.67;;;9.80;99.90;;;;;;5096430;28;20048;-78
2022/12/29 13:43:17;;;;;;;9.00;3.00;;;9.70;99.90;;;;;;5094949;28;20123;-77
2022/12/29 13:45:43;;;;;;;6.50;2.33;;;9.60;99.90;;;;;;5096280;28;20392;-77
2022/12/29 13:48:24;;;;;;;6.72;2.22;;;9.50;99.90;;;;;;5095901;28;20062;-77
2022/12/29 13:50:56;;;;;;;10.90;2.75;;;9.50;99.90;;;;;;5096142;28;20094;-77
2022/12/29 13:53:34;;;;;;;9.35;2.60;;;9.50;99.90;;;;;;5096217;28;20079;-78